Time;durP1;ratioP1;P1;durP2;ratioP2;P2;SDS_P1;SDS_P2;PMS_P1;PMS_P2;Temp;Humidity;BMP_temperature;BMP_pressure;BME280_temperature;BME280_humidity;BME280_pressure;Samples;Min_cycle;Max_cycle;Signal;HPM_P1;HPM_P2
2022/12/07 00:00:55;;;;;;;9.63;5.30;;;7.90;79.60;;;;;;5032695;28;20017;-66
2022/12/07 00:03:21;;;;;;;8.13;4.18;;;7.90;79.50;;;;;;5032546;28;20029;-65
2022/12/07 00:05:47;;;;;;;8.88;4.70;;;7.90;79.50;;;;;;5032704;28;20030;-65
2022/12/07 00:08:12;;;;;;;9.07;4.63;;;8.00;79.60;;;;;;5031773;28;20044;-65
2022/12/07 00:10:38;;;;;;;8.68;4.47;;;7.90;79.50;;;;;;5032030;28;20037;-65
2022/12/07 00:13:03;;;;;;;9.80;4.57;;;7.90;79.50;;;;;;5032845;28;20029;-65
2022/12/07 00:15:29;;;;;;;7.60;4.32;;;7.90;79.40;;;;;;5031543;28;20029;-65
2022/12/07 00:17:55;;;;;;;8.63;4.50;;;7.90;79.40;;;;;;5032404;28;20040;-66
2022/12/07 00:20:20;;;;;;;9.13;4.97;;;7.90;79.40;;;;;;5032480;28;20068;-65
2022/12/07 00:22:46;;;;;;;7.80;4.40;;;7.90;79.40;;;;;;5035241;28;20060;-65
2022/12/07 00:25:11;;;;;;;9.23;4.32;;;7.80;79.40;;;;;;5040744;28;20026;-65
2022/12/07 00:27:37;;;;;;;7.97;4.35;;;7.80;79.40;;;;;;5044725;28;20036;-65
2022/12/07 00:30:03;;;;;;;9.10;4.88;;;7.80;79.40;;;;;;5051045;28;20037;-65
2022/12/07 00:32:29;;;;;;;8.38;4.18;;;7.80;79.40;;;;;;5043995;28;20040;-65
2022/12/07 00:34:54;;;;;;;8.60;4.65;;;7.70;79.30;;;;;;5046165;28;20029;-65
2022/12/07 00:37:20;;;;;;;8.45;4.07;;;7.70;79.30;;;;;;5038844;28;20375;-65
2022/12/07 00:39:46;;;;;;;8.10;4.37;;;7.70;79.30;;;;;;5035669;28;20026;-65
2022/12/07 00:42:11;;;;;;;9.20;4.32;;;7.70;79.30;;;;;;5038515;28;20026;-65
2022/12/07 00:44:37;;;;;;;8.80;4.25;;;7.70;79.20;;;;;;5045474;28;20346;-65
2022/12/07 00:47:03;;;;;;;7.97;4.33;;;7.60;79.20;;;;;;5046311;28;20319;-66
2022/12/07 00:49:28;;;;;;;9.02;3.80;;;7.60;79.20;;;;;;5054549;28;20036;-65
2022/12/07 00:51:54;;;;;;;10.48;4.38;;;7.60;79.10;;;;;;5045290;28;20030;-65
2022/12/07 00:54:20;;;;;;;7.55;3.75;;;7.60;79.10;;;;;;5054517;28;20106;-65
2022/12/07 00:56:45;;;;;;;9.95;4.88;;;7.50;79.10;;;;;;5046726;28;20032;-65
2022/12/07 00:59:16;;;;;;;9.80;4.72;;;7.50;79.00;;;;;;5052475;28;20054;-65
2022/12/07 01:01:42;;;;;;;7.43;4.20;;;7.50;79.00;;;;;;5047253;28;20136;-65
2022/12/07 01:04:08;;;;;;;9.77;4.97;;;7.50;79.00;;;;;;5050121;28;20044;-65
2022/12/07 01:06:34;;;;;;;8.43;5.00;;;7.50;79.10;;;;;;5046307;28;20024;-65
2022/12/07 01:09:00;;;;;;;9.43;5.00;;;7.50;79.00;;;;;;5048217;28;20418;-65
2022/12/07 01:11:28;;;;;;;11.25;5.32;;;7.40;79.60;;;;;;5043049;28;20029;-65
2022/12/07 01:13:55;;;;;;;10.95;5.30;;;7.40;78.90;;;;;;5037466;28;20037;-65
2022/12/07 01:16:23;;;;;;;9.77;5.63;;;7.40;78.90;;;;;;5053815;28;20503;-65
2022/12/07 01:18:50;;;;;;;10.20;5.47;;;7.40;78.90;;;;;;5038289;28;20365;-65
2022/12/07 01:21:20;;;;;;;11.70;6.10;;;7.40;78.90;;;;;;5030746;28;20458;-66
2022/12/07 01:23:46;;;;;;;13.48;5.60;;;7.30;78.90;;;;;;5041136;28;20437;-65
2022/12/07 01:26:15;;;;;;;11.77;6.20;;;7.30;78.90;;;;;;5047866;28;20053;-65
2022/12/07 01:28:41;;;;;;;9.27;5.25;;;7.30;78.80;;;;;;5044568;28;20025;-65
2022/12/07 01:31:11;;;;;;;12.13;6.20;;;7.20;78.70;;;;;;5047381;28;20462;-65
2022/12/07 01:33:38;;;;;;;10.98;5.95;;;7.20;78.70;;;;;;5037029;28;20021;-65
2022/12/07 01:36:08;;;;;;;11.57;5.95;;;7.20;78.70;;;;;;5056530;28;20059;-65
2022/12/07 01:38:34;;;;;;;9.88;5.95;;;7.20;78.70;;;;;;5041585;28;20473;-65
2022/12/07 01:41:02;;;;;;;11.68;5.93;;;7.20;78.70;;;;;;5043697;28;20033;-65
2022/12/07 01:43:29;;;;;;;11.00;5.97;;;7.20;78.70;;;;;;5032280;28;20026;-65
2022/12/07 01:45:56;;;;;;;10.75;5.57;;;7.20;78.60;;;;;;5034897;28;20036;-65
2022/12/07 01:48:27;;;;;;;12.00;6.57;;;7.20;78.60;;;;;;5031915;28;20108;-65
2022/12/07 01:50:56;;;;;;;11.30;5.80;;;7.20;78.60;;;;;;5038081;28;20020;-65
2022/12/07 01:53:26;;;;;;;12.30;6.17;;;7.10;78.50;;;;;;5040372;28;20037;-65
2022/12/07 01:55:53;;;;;;;10.20;5.43;;;7.10;78.50;;;;;;5037848;28;20060;-65
2022/12/07 01:58:19;;;;;;;10.55;5.72;;;7.10;78.50;;;;;;5053502;28;20021;-65
2022/12/07 02:00:44;;;;;;;9.63;5.53;;;7.10;78.50;;;;;;5035137;28;20105;-65
2022/12/07 02:03:16;;;;;;;12.70;5.82;;;7.10;78.50;;;;;;5043821;28;20055;-65
2022/12/07 02:05:43;;;;;;;12.20;5.50;;;7.10;78.50;;;;;;5035244;28;20029;-65
2022/12/07 02:08:10;;;;;;;11.27;5.38;;;7.00;78.40;;;;;;5040257;28;20025;-65
2022/12/07 02:10:36;;;;;;;10.52;5.82;;;7.00;78.40;;;;;;5035642;28;20064;-65
2022/12/07 02:13:12;;;;;;;10.05;5.72;;;7.00;78.40;;;;;;5038659;28;20415;-65
2022/12/07 02:15:44;;;;;;;10.00;6.17;;;7.00;78.40;;;;;;5038473;28;20029;-65
2022/12/07 02:18:23;;;;;;;10.00;5.80;;;7.00;79.10;;;;;;5039450;28;20461;-65
2022/12/07 02:21:20;;;;;;;13.67;5.73;;;6.90;78.40;;;;;;5037378;28;20068;-65
2022/12/07 02:24:13;;;;;;;10.73;6.13;;;7.00;78.30;;;;;;5036680;28;20048;-65
2022/12/07 02:27:05;;;;;;;10.15;5.53;;;6.90;78.30;;;;;;5045674;28;20112;-65
2022/12/07 02:29:40;;;;;;;9.87;5.17;;;6.90;78.20;;;;;;5033154;28;20108;-65
2022/12/07 02:32:23;;;;;;;10.33;4.80;;;6.90;78.30;;;;;;5033960;28;20104;-65
2022/12/07 02:35:04;;;;;;;9.50;4.73;;;6.90;78.30;;;;;;5033991;28;20034;-65
2022/12/07 02:37:48;;;;;;;10.00;5.55;;;6.80;78.20;;;;;;5035500;28;20108;-65
2022/12/07 02:40:57;;;;;;;13.03;5.50;;;6.80;78.20;;;;;;5032724;28;20018;-65
2022/12/07 02:43:33;;;;;;;9.47;4.63;;;6.80;78.20;;;;;;4993178;28;20122;-65
2022/12/07 02:46:10;;;;;;;11.27;4.87;;;6.80;78.20;;;;;;4990039;28;20479;-65
2022/12/07 02:48:56;;;;;;;10.48;4.72;;;6.80;78.20;;;;;;5010679;28;20424;-65
2022/12/07 02:51:22;;;;;;;7.10;3.80;;;6.80;78.30;;;;;;4991762;28;20459;-65
2022/12/07 02:53:48;;;;;;;10.53;4.37;;;6.80;78.20;;;;;;4995830;28;20035;-65
2022/12/07 02:56:30;;;;;;;12.53;4.60;;;6.80;78.20;;;;;;4991356;28;20041;-65
2022/12/07 02:59:16;;;;;;;8.70;4.07;;;6.80;78.20;;;;;;4994347;28;20034;-65
2022/12/07 03:02:04;;;;;;;7.17;3.50;;;6.80;78.20;;;;;;5001099;28;20045;-66
2022/12/07 03:04:51;;;;;;;10.23;4.30;;;6.80;78.10;;;;;;5003631;28;20470;-65
2022/12/07 03:07:41;;;;;;;8.47;3.53;;;6.80;78.00;;;;;;4996760;28;20050;-66
2022/12/07 03:10:31;;;;;;;8.10;3.85;;;6.80;78.00;;;;;;4990683;28;20046;-65
2022/12/07 03:13:19;;;;;;;9.57;4.43;;;6.80;78.10;;;;;;5005407;28;20042;-65
2022/12/07 03:16:14;;;;;;;8.10;3.13;;;6.80;78.20;;;;;;5033683;28;20522;-65
2022/12/07 03:19:04;;;;;;;10.27;3.70;;;6.80;78.20;;;;;;5033184;28;20509;-65
2022/12/07 03:21:38;;;;;;;10.03;3.37;;;6.90;78.20;;;;;;5031363;28;20065;-65
2022/12/07 03:24:09;;;;;;;8.33;3.37;;;6.80;78.20;;;;;;5027850;28;20030;-65
2022/12/07 03:26:38;;;;;;;8.27;3.40;;;6.90;78.20;;;;;;5020904;28;20033;-65
2022/12/07 03:29:11;;;;;;;9.57;3.33;;;6.90;78.20;;;;;;5033250;28;20129;-65
2022/12/07 03:31:42;;;;;;;10.30;3.47;;;6.90;78.20;;;;;;5031137;28;20052;-65
2022/12/07 03:34:17;;;;;;;9.15;3.25;;;6.90;78.20;;;;;;5033932;28;20033;-65
2022/12/07 03:36:57;;;;;;;9.00;3.33;;;6.90;78.20;;;;;;5019534;28;20413;-65
2022/12/07 03:39:35;;;;;;;8.20;2.90;;;7.00;78.30;;;;;;5031890;28;20062;-65
2022/12/07 03:42:04;;;;;;;8.02;3.15;;;7.00;78.30;;;;;;5020593;28;20029;-65
2022/12/07 03:44:30;;;;;;;6.68;2.67;;;7.00;78.90;;;;;;5033246;28;20029;-65
2022/12/07 03:47:20;;;;;;;10.30;2.93;;;7.00;78.30;;;;;;5031096;28;20037;-66
2022/12/07 03:50:11;;;;;;;5.77;2.63;;;7.00;78.30;;;;;;5024951;28;20034;-65
2022/12/07 03:52:42;;;;;;;;;;;7.10;78.30;;;;;;5033120;28;20037;-65
2022/12/07 03:55:13;;;;;;;7.80;3.00;;;7.00;78.30;;;;;;5033928;28;19919;-65
2022/12/07 03:57:42;;;;;;;7.18;2.95;;;7.00;78.30;;;;;;5032337;28;20033;-65
2022/12/07 04:00:10;;;;;;;7.90;3.43;;;7.10;78.40;;;;;;5032816;28;20076;-65
2022/12/07 04:02:39;;;;;;;6.93;2.80;;;7.10;78.30;;;;;;5030241;28;20045;-65
2022/12/07 04:05:05;;;;;;;7.23;2.77;;;7.10;78.40;;;;;;5033788;28;20033;-65
2022/12/07 04:07:31;;;;;;;8.43;2.75;;;7.10;78.40;;;;;;5032832;28;20037;-65
2022/12/07 04:09:57;;;;;;;8.15;2.83;;;7.10;78.50;;;;;;5032621;28;20041;-65
2022/12/07 04:12:23;;;;;;;6.63;2.50;;;7.10;78.40;;;;;;5032379;28;20040;-66
2022/12/07 04:14:48;;;;;;;7.57;2.57;;;7.10;78.40;;;;;;5032235;28;20104;-65
2022/12/07 04:17:14;;;;;;;8.13;2.70;;;7.10;78.40;;;;;;5032039;28;20474;-65
2022/12/07 04:19:40;;;;;;;8.27;2.93;;;7.10;78.50;;;;;;5031465;28;20418;-65
2022/12/07 04:22:05;;;;;;;6.33;2.60;;;7.10;78.50;;;;;;5033474;28;20029;-65
2022/12/07 04:24:32;;;;;;;8.77;3.05;;;7.10;78.50;;;;;;5032555;28;20026;-65
2022/12/07 04:26:58;;;;;;;7.93;2.93;;;7.10;78.50;;;;;;5033674;28;20087;-65
2022/12/07 04:29:24;;;;;;;7.07;3.03;;;7.00;78.50;;;;;;5031052;28;20041;-65
2022/12/07 04:31:51;;;;;;;7.10;2.50;;;7.00;78.50;;;;;;5033408;28;20124;-65
2022/12/07 04:34:17;;;;;;;8.20;2.80;;;7.00;78.50;;;;;;5031591;28;20445;-65
2022/12/07 04:36:44;;;;;;;7.30;2.93;;;7.00;79.10;;;;;;5033646;28;20037;-65
2022/12/07 04:39:25;;;;;;;7.50;3.00;;;7.00;78.50;;;;;;5030330;28;20041;-65
2022/12/07 04:41:51;;;;;;;9.07;3.13;;;7.00;78.50;;;;;;5033118;28;20048;-65
2022/12/07 04:44:18;;;;;;;7.43;3.33;;;7.00;78.60;;;;;;5031676;28;20033;-65
2022/12/07 04:46:44;;;;;;;10.33;3.57;;;6.90;78.50;;;;;;5031912;28;20033;-65
2022/12/07 04:49:10;;;;;;;10.33;3.60;;;6.90;78.60;;;;;;5031692;28;20040;-65
2022/12/07 04:51:36;;;;;;;9.63;3.60;;;6.90;78.60;;;;;;5033220;28;20037;-65
2022/12/07 04:54:02;;;;;;;8.63;3.43;;;6.90;78.60;;;;;;5031086;28;20033;-65
2022/12/07 04:56:28;;;;;;;6.93;3.20;;;6.90;78.60;;;;;;5032821;28;20029;-65
2022/12/07 04:58:54;;;;;;;9.82;3.53;;;6.90;78.60;;;;;;5031482;28;20022;-65
2022/12/07 05:01:21;;;;;;;7.77;3.20;;;6.90;78.60;;;;;;5032916;28;20021;-65
2022/12/07 05:03:47;;;;;;;8.77;3.07;;;6.90;78.60;;;;;;5030672;28;20035;-65
2022/12/07 05:06:13;;;;;;;8.43;3.43;;;6.90;78.60;;;;;;5031750;28;20124;-65
2022/12/07 05:08:39;;;;;;;8.70;3.70;;;6.90;78.50;;;;;;5034431;28;20346;-65
2022/12/07 05:11:06;;;;;;;11.23;3.53;;;6.90;78.50;;;;;;5035335;28;20078;-65
2022/12/07 05:13:32;;;;;;;7.35;3.05;;;6.90;78.50;;;;;;5035643;28;20355;-65
2022/12/07 05:15:58;;;;;;;7.60;3.17;;;6.80;78.50;;;;;;5035525;28;20024;-66
2022/12/07 05:18:23;;;;;;;9.03;3.83;;;6.80;78.50;;;;;;5034836;28;20350;-65
2022/12/07 05:20:50;;;;;;;7.73;3.13;;;6.80;78.50;;;;;;5035197;28;20356;-65
2022/12/07 05:23:17;;;;;;;7.63;2.90;;;6.70;78.50;;;;;;5035655;28;20038;-65
2022/12/07 05:25:42;;;;;;;6.53;3.07;;;6.80;78.50;;;;;;5035232;28;20441;-65
2022/12/07 05:28:08;;;;;;;6.50;2.80;;;6.70;78.40;;;;;;5036290;28;20045;-65
2022/12/07 05:30:33;;;;;;;8.05;3.03;;;6.70;78.40;;;;;;5041932;28;20068;-66
2022/12/07 05:32:59;;;;;;;7.85;2.75;;;6.70;78.40;;;;;;5036308;28;20037;-65
2022/12/07 05:35:25;;;;;;;8.07;3.17;;;6.70;78.40;;;;;;5033618;28;20029;-65
2022/12/07 05:37:50;;;;;;;6.37;2.80;;;6.60;78.40;;;;;;5033974;28;20415;-66
2022/12/07 05:40:18;;;;;;;5.60;2.73;;;6.60;78.40;;;;;;5035058;28;20021;-65
2022/12/07 05:42:44;;;;;;;5.90;2.60;;;6.60;78.30;;;;;;5035945;28;20328;-65
2022/12/07 05:45:10;;;;;;;7.33;3.00;;;6.60;78.40;;;;;;5035604;28;20091;-65
2022/12/07 05:47:37;;;;;;;8.25;3.00;;;6.60;79.00;;;;;;5034181;28;20021;-65
2022/12/07 05:50:04;;;;;;;10.80;3.43;;;6.60;78.40;;;;;;5033616;28;20025;-65
2022/12/07 05:52:30;;;;;;;6.53;2.60;;;6.60;78.40;;;;;;5032831;28;20096;-65
2022/12/07 05:54:56;;;;;;;9.07;3.53;;;6.60;78.30;;;;;;5030664;28;20053;-65
2022/12/07 05:57:21;;;;;;;6.20;3.07;;;6.60;78.30;;;;;;5035205;28;20120;-65
2022/12/07 05:59:47;;;;;;;7.07;2.77;;;6.60;78.30;;;;;;5033363;28;20120;-65
2022/12/07 06:02:14;;;;;;;7.83;3.07;;;6.60;78.30;;;;;;5027753;28;20026;-65
2022/12/07 06:04:43;;;;;;;10.87;2.97;;;6.50;78.30;;;;;;5035946;28;20095;-65
2022/12/07 06:07:09;;;;;;;7.87;2.90;;;6.50;78.30;;;;;;5047403;28;20358;-65
2022/12/07 06:09:36;;;;;;;8.10;2.63;;;6.50;78.30;;;;;;5034750;28;20036;-65
2022/12/07 06:14:47;;;;;;;7.40;3.33;;;6.50;78.20;;;;;;5034826;28;20036;-65
2022/12/07 06:17:13;;;;;;;8.03;2.87;;;6.50;78.20;;;;;;5033074;28;20350;-65
2022/12/07 06:19:39;;;;;;;7.23;2.90;;;6.40;78.10;;;;;;5032865;28;20322;-65
2022/12/07 06:22:05;;;;;;;9.53;3.53;;;6.50;78.30;;;;;;5031188;28;20094;-65
2022/12/07 06:24:32;;;;;;;5.83;2.73;;;6.40;78.20;;;;;;5033805;28;20025;-65
2022/12/07 06:26:58;;;;;;;10.10;4.03;;;6.40;78.20;;;;;;5033782;28;20438;-65
2022/12/07 06:29:24;;;;;;;8.10;3.23;;;6.40;78.20;;;;;;5033188;28;20033;-65
2022/12/07 06:31:50;;;;;;;7.13;2.90;;;6.40;78.20;;;;;;5034748;28;20025;-65
2022/12/07 06:34:18;;;;;;;8.53;3.40;;;6.40;78.20;;;;;;5033735;28;20037;-65
2022/12/07 06:36:44;;;;;;;7.93;3.43;;;6.40;78.20;;;;;;5035810;28;20111;-65
2022/12/07 06:39:10;;;;;;;8.93;3.60;;;6.30;78.10;;;;;;5035233;28;20057;-65
2022/12/07 06:41:36;;;;;;;7.93;3.20;;;6.30;78.10;;;;;;5035305;28;20037;-65
2022/12/07 06:44:03;;;;;;;7.83;3.87;;;6.30;78.20;;;;;;5036570;28;20049;-65
2022/12/07 06:46:29;;;;;;;8.97;3.60;;;6.30;78.20;;;;;;5035237;28;20037;-65
2022/12/07 06:48:55;;;;;;;8.27;3.27;;;6.30;78.10;;;;;;5034130;28;20385;-65
2022/12/07 06:51:20;;;;;;;5.73;2.90;;;6.30;78.20;;;;;;5035031;28;20104;-65
2022/12/07 06:53:46;;;;;;;8.23;3.97;;;6.30;78.20;;;;;;5034894;28;20091;-65
2022/12/07 06:56:12;;;;;;;9.13;3.53;;;6.20;78.10;;;;;;5033911;28;20128;-65
2022/12/07 06:58:37;;;;;;;7.73;3.67;;;6.20;78.10;;;;;;5033881;28;20028;-65
2022/12/07 07:01:08;;;;;;;8.27;3.30;;;6.20;78.10;;;;;;5032208;28;20390;-65
2022/12/07 07:03:33;;;;;;;8.53;3.17;;;6.20;78.10;;;;;;5033442;28;20029;-65
2022/12/07 07:05:59;;;;;;;7.80;3.30;;;6.20;78.10;;;;;;5032829;28;20437;-66
2022/12/07 07:08:24;;;;;;;8.73;4.30;;;6.20;78.10;;;;;;5033644;28;20171;-65
2022/12/07 07:10:50;;;;;;;7.27;3.30;;;6.20;78.10;;;;;;5031885;28;20045;-65
2022/12/07 07:13:16;;;;;;;6.33;2.97;;;6.20;78.10;;;;;;5031808;28;20029;-65
2022/12/07 07:15:42;;;;;;;6.63;2.80;;;6.20;78.10;;;;;;5032669;28;20037;-64
2022/12/07 07:18:08;;;;;;;8.90;3.40;;;6.20;78.10;;;;;;5032886;28;20033;-65
2022/12/07 07:20:33;;;;;;;9.53;3.10;;;6.20;78.00;;;;;;5033599;28;20110;-66
2022/12/07 07:22:59;;;;;;;8.27;2.97;;;6.20;77.90;;;;;;5033598;28;20025;-66
2022/12/07 07:25:25;;;;;;;7.47;2.77;;;6.20;77.90;;;;;;5031521;28;20359;-66
2022/12/07 07:27:50;;;;;;;8.27;3.43;;;6.30;77.90;;;;;;5031737;28;20026;-66
2022/12/07 07:30:16;;;;;;;6.90;2.73;;;6.30;77.90;;;;;;5038237;28;20033;-66
2022/12/07 07:32:42;;;;;;;7.37;2.90;;;6.30;77.90;;;;;;5033002;28;20037;-67
2022/12/07 07:35:08;;;;;;;7.60;3.17;;;6.30;77.80;;;;;;5034115;28;20021;-67
2022/12/07 07:37:34;;;;;;;10.67;3.60;;;6.30;77.80;;;;;;5046271;28;20120;-67
2022/12/07 07:39:59;;;;;;;7.90;2.93;;;6.30;77.80;;;;;;5033296;28;20076;-68
2022/12/07 07:42:25;;;;;;;6.17;2.40;;;6.30;77.80;;;;;;5033917;28;20044;-68
2022/12/07 07:44:51;;;;;;;7.63;2.70;;;6.30;77.90;;;;;;5033886;28;20605;-68
2022/12/07 07:47:16;;;;;;;8.73;3.07;;;6.30;77.90;;;;;;5028517;28;20061;-68
2022/12/07 07:49:42;;;;;;;7.97;2.70;;;6.30;77.90;;;;;;5031527;28;20150;-68
2022/12/07 07:52:08;;;;;;;10.53;2.60;;;6.30;77.90;;;;;;5032060;28;20037;-68
2022/12/07 07:54:33;;;;;;;8.37;2.87;;;6.30;77.90;;;;;;5033777;28;20037;-68
2022/12/07 07:56:59;;;;;;;7.83;2.60;;;6.30;77.80;;;;;;5032415;28;20025;-69
2022/12/07 07:59:25;;;;;;;6.03;2.70;;;6.20;77.70;;;;;;5028559;28;20029;-68
2022/12/07 08:01:51;;;;;;;7.43;2.87;;;6.30;77.80;;;;;;5031656;28;20032;-68
2022/12/07 08:04:16;;;;;;;8.40;2.83;;;6.30;77.80;;;;;;5030667;28;20116;-68
2022/12/07 08:06:42;;;;;;;6.83;2.67;;;6.20;77.80;;;;;;5031149;28;20029;-68
2022/12/07 08:09:08;;;;;;;7.00;2.17;;;6.20;77.80;;;;;;5031093;28;20036;-68
2022/12/07 08:11:34;;;;;;;7.83;2.67;;;6.30;77.80;;;;;;5030765;28;20103;-67
2022/12/07 08:14:00;;;;;;;9.17;2.37;;;6.30;77.80;;;;;;5031829;28;20034;-67
2022/12/07 08:16:26;;;;;;;5.27;2.33;;;6.30;77.80;;;;;;5012278;28;20052;-67
2022/12/07 08:18:52;;;;;;;7.27;2.60;;;6.30;77.80;;;;;;5029671;28;20025;-68
2022/12/07 08:21:18;;;;;;;6.60;2.50;;;6.40;77.80;;;;;;5031949;28;20143;-67
2022/12/07 08:23:43;;;;;;;7.70;2.73;;;6.40;78.30;;;;;;5013922;28;20079;-68
2022/12/07 08:26:11;;;;;;;7.37;2.30;;;6.50;77.70;;;;;;5029427;28;20509;-68
2022/12/07 08:28:37;;;;;;;10.23;3.03;;;6.50;77.60;;;;;;5033408;28;20052;-68
2022/12/07 08:31:06;;;;;;;9.47;2.90;;;6.60;77.50;;;;;;5033481;28;20100;-68
2022/12/07 08:33:32;;;;;;;9.77;3.33;;;6.60;77.50;;;;;;5030539;28;20025;-67
2022/12/07 08:36:02;;;;;;;6.77;3.00;;;6.60;77.50;;;;;;5032893;28;20050;-68
2022/12/07 08:38:28;;;;;;;8.17;3.13;;;6.70;77.70;;;;;;5044459;28;20074;-68
2022/12/07 08:40:58;;;;;;;8.17;3.00;;;6.60;77.70;;;;;;5033083;28;20686;-68
2022/12/07 08:43:24;;;;;;;8.57;2.97;;;6.70;77.80;;;;;;5029774;28;20030;-68
2022/12/07 08:46:05;;;;;;;10.37;3.27;;;6.70;78.00;;;;;;5035924;28;20095;-68
2022/12/07 08:48:31;;;;;;;6.43;2.40;;;6.70;78.10;;;;;;5049157;28;20033;-70
2022/12/07 08:50:57;;;;;;;8.87;2.90;;;6.70;78.10;;;;;;5034792;28;20037;-67
2022/12/07 08:53:23;;;;;;;6.97;2.17;;;6.70;78.10;;;;;;5034932;28;20133;-67
2022/12/07 08:55:49;;;;;;;9.83;2.50;;;6.80;78.20;;;;;;5036487;28;20087;-67
2022/12/07 08:58:15;;;;;;;7.07;2.30;;;6.80;78.20;;;;;;5036854;28;20080;-68
2022/12/07 09:00:41;;;;;;;5.10;2.23;;;6.80;78.20;;;;;;5037056;28;20021;-68
2022/12/07 09:03:07;;;;;;;9.57;2.50;;;6.90;78.20;;;;;;5037392;28;20048;-67
2022/12/07 09:05:34;;;;;;;7.93;3.10;;;6.90;78.20;;;;;;5036449;28;20033;-67
2022/12/07 09:08:01;;;;;;;8.13;2.60;;;6.90;78.20;;;;;;5036292;28;20064;-67
2022/12/07 09:10:28;;;;;;;7.80;2.40;;;7.00;78.20;;;;;;5037422;28;20037;-67
2022/12/07 09:12:54;;;;;;;7.57;2.60;;;7.10;78.00;;;;;;5052692;28;20187;-67
2022/12/07 09:15:19;;;;;;;6.23;2.30;;;7.30;77.80;;;;;;5035861;28;20104;-67
2022/12/07 09:17:45;;;;;;;7.40;2.20;;;7.40;77.60;;;;;;5037009;28;20022;-67
2022/12/07 09:20:11;;;;;;;8.47;2.20;;;7.50;77.50;;;;;;5035495;28;20065;-67
2022/12/07 09:22:37;;;;;;;4.87;2.10;;;7.50;77.50;;;;;;5035629;28;20067;-67
2022/12/07 09:25:03;;;;;;;6.53;2.03;;;7.50;77.60;;;;;;5036660;28;20060;-67
2022/12/07 09:27:30;;;;;;;6.30;2.00;;;7.40;77.60;;;;;;5034985;28;20132;-67
2022/12/07 09:29:55;;;;;;;7.82;2.20;;;7.50;77.70;;;;;;5036746;28;20044;-67
2022/12/07 09:32:21;;;;;;;5.43;1.95;;;7.50;77.70;;;;;;5018396;28;20025;-67
2022/12/07 09:34:47;;;;;;;9.23;2.37;;;7.50;77.60;;;;;;5036640;28;20030;-67
2022/12/07 09:37:13;;;;;;;6.40;2.35;;;7.60;77.60;;;;;;5035621;28;20036;-67
2022/12/07 09:39:39;;;;;;;10.87;2.50;;;7.70;77.60;;;;;;5051971;28;20034;-67
2022/12/07 09:42:07;;;;;;;7.53;2.35;;;7.70;77.50;;;;;;5035888;28;20037;-67
2022/12/07 09:44:34;;;;;;;7.13;2.30;;;7.80;77.40;;;;;;5036848;28;20481;-67
2022/12/07 09:47:00;;;;;;;6.80;2.27;;;7.90;77.40;;;;;;5035882;28;20369;-67
2022/12/07 09:49:29;;;;;;;9.23;2.88;;;7.90;77.20;;;;;;5036566;28;20029;-67
2022/12/07 09:52:18;;;;;;;7.97;2.80;;;8.00;77.20;;;;;;5035263;28;20128;-68
2022/12/07 09:54:47;;;;;;;7.28;2.45;;;8.10;77.10;;;;;;5033153;28;20044;-67
2022/12/07 09:57:13;;;;;;;6.75;2.13;;;8.20;77.00;;;;;;5036561;28;20026;-67
2022/12/07 09:59:42;;;;;;;6.85;2.25;;;8.40;76.90;;;;;;5036301;28;20033;-67
2022/12/07 10:02:38;;;;;;;6.82;2.42;;;8.60;76.60;;;;;;5034577;28;20065;-67
2022/12/07 10:05:06;;;;;;;11.35;2.38;;;8.80;76.10;;;;;;5036067;28;20048;-65
2022/12/07 10:07:32;;;;;;;9.00;2.25;;;9.00;75.80;;;;;;5036342;28;20029;-66
2022/12/07 10:09:58;;;;;;;7.70;3.00;;;9.10;75.40;;;;;;5036013;28;20029;-66
2022/12/07 10:12:23;;;;;;;7.95;2.17;;;9.30;75.20;;;;;;5036199;28;20029;-66
2022/12/07 10:15:07;;;;;;;7.47;2.35;;;9.40;74.90;;;;;;5034943;28;20049;-66
2022/12/07 10:17:46;;;;;;;5.20;1.92;;;9.60;74.50;;;;;;5034905;28;20133;-66
2022/12/07 10:20:13;;;;;;;7.35;2.38;;;9.70;74.20;;;;;;5035430;28;20482;-66
2022/12/07 10:22:58;;;;;;;5.10;2.05;;;9.70;74.10;;;;;;5036135;28;20139;-66
2022/12/07 10:25:27;;;;;;;6.93;2.47;;;9.60;74.00;;;;;;5035927;28;20036;-66
2022/12/07 10:28:07;;;;;;;6.38;1.90;;;9.70;74.00;;;;;;5034587;28;20057;-66
2022/12/07 10:31:11;;;;;;;7.28;2.50;;;9.70;73.80;;;;;;5031049;28;20150;-66
2022/12/07 10:33:51;;;;;;;7.63;2.10;;;9.70;73.70;;;;;;5022304;28;20049;-65
2022/12/07 10:36:19;;;;;;;7.28;2.78;;;9.70;73.60;;;;;;5032660;28;20374;-67
2022/12/07 10:38:58;;;;;;;6.25;2.17;;;9.60;73.80;;;;;;5032837;28;20040;-67
2022/12/07 10:41:23;;;;;;;7.13;2.35;;;9.50;74.00;;;;;;5034596;28;20041;-67
2022/12/07 10:43:52;;;;;;;8.30;2.33;;;9.30;74.20;;;;;;5033410;28;20021;-67
2022/12/07 10:46:32;;;;;;;6.63;2.20;;;9.40;74.20;;;;;;5036397;28;20108;-67
2022/12/07 10:49:34;;;;;;;7.90;2.58;;;9.60;73.90;;;;;;5031787;28;20034;-67
2022/12/07 10:52:28;;;;;;;7.25;2.08;;;9.70;73.60;;;;;;5034456;28;20450;-67
2022/12/07 10:55:18;;;;;;;5.47;2.20;;;9.70;73.50;;;;;;5047739;28;20036;-67
2022/12/07 10:57:58;;;;;;;6.72;2.25;;;9.70;73.60;;;;;;5031049;28;20064;-66
2022/12/07 11:00:29;;;;;;;6.80;2.05;;;9.80;73.30;;;;;;5047615;28;20029;-67
2022/12/07 11:03:31;;;;;;;6.63;2.00;;;9.80;73.20;;;;;;5029776;28;20100;-66
2022/12/07 11:06:15;;;;;;;8.18;2.25;;;9.70;73.20;;;;;;5041718;28;20048;-67
2022/12/07 11:09:03;;;;;;;9.90;2.65;;;9.60;73.60;;;;;;5034570;28;20065;-67
2022/12/07 11:11:36;;;;;;;7.68;2.58;;;9.50;73.70;;;;;;5031767;28;20048;-67
2022/12/07 11:14:36;;;;;;;8.60;2.78;;;9.40;73.90;;;;;;5031176;28;20361;-66
2022/12/07 11:17:09;;;;;;;6.10;1.92;;;9.30;73.90;;;;;;5033221;28;20468;-66
2022/12/07 11:20:00;;;;;;;8.43;1.95;;;9.30;74.10;;;;;;5032175;28;20561;-66
2022/12/07 11:22:47;;;;;;;8.98;2.30;;;9.20;74.10;;;;;;5034607;28;20454;-67
2022/12/07 11:25:42;;;;;;;6.45;2.10;;;9.20;74.10;;;;;;5032051;28;20037;-66
2022/12/07 11:28:34;;;;;;;8.15;2.63;;;9.20;74.10;;;;;;5029433;28;20355;-66
2022/12/07 11:31:26;;;;;;;5.82;1.77;;;9.10;74.20;;;;;;5047437;28;20079;-66
2022/12/07 11:33:58;;;;;;;;;;;9.10;74.20;;;;;;5032038;28;20041;-67
2022/12/07 11:36:23;;;;;;;4.55;1.60;;;9.10;74.30;;;;;;5033707;28;19981;-68
2022/12/07 11:38:55;;;;;;;5.55;1.75;;;9.10;74.20;;;;;;5033820;28;20514;-68
2022/12/07 11:41:27;;;;;;;3.97;1.63;;;9.10;74.10;;;;;;5032089;28;20136;-67
2022/12/07 11:44:14;;;;;;;;;;;9.10;74.10;;;;;;5033760;28;20036;-68
2022/12/07 11:46:45;;;;;;;3.95;1.60;;;9.10;74.20;;;;;;5003349;28;19909;-68
2022/12/07 11:49:35;;;;;;;3.40;1.40;;;9.00;74.10;;;;;;5028190;28;20029;-68
2022/12/07 11:52:04;;;;;;;5.68;1.50;;;9.10;74.20;;;;;;5022731;28;20299;-67
2022/12/07 11:54:38;;;;;;;4.38;1.58;;;9.00;74.10;;;;;;5032846;28;20446;-68
2022/12/07 11:57:13;;;;;;;5.28;1.70;;;9.10;74.20;;;;;;5033357;28;20094;-68
2022/12/07 11:59:49;;;;;;;6.00;1.50;;;9.00;74.20;;;;;;5031231;28;20429;-68
2022/12/07 12:02:28;;;;;;;7.78;2.42;;;9.10;74.30;;;;;;5030151;28;20040;-68
2022/12/07 12:05:13;;;;;;;3.90;1.63;;;9.10;74.30;;;;;;5032509;28;20030;-68
2022/12/07 12:07:41;;;;;;;5.50;1.70;;;9.10;74.20;;;;;;5032145;28;20030;-68
2022/12/07 12:10:36;;;;;;;7.18;1.55;;;9.10;74.30;;;;;;5032831;28;20060;-68
2022/12/07 12:13:16;;;;;;;6.90;2.17;;;9.00;74.30;;;;;;5031612;28;20437;-67
2022/12/07 12:16:10;;;;;;;5.90;1.73;;;9.00;74.50;;;;;;5029639;28;20343;-68
2022/12/07 12:18:53;;;;;;;12.23;2.38;;;8.90;74.50;;;;;;5033477;28;20116;-68
2022/12/07 12:21:28;;;;;;;7.43;1.90;;;8.90;74.60;;;;;;5027346;28;20037;-68
2022/12/07 12:24:05;;;;;;;4.72;1.80;;;8.90;74.70;;;;;;5039610;28;20022;-68
2022/12/07 12:26:35;;;;;;;7.25;1.77;;;8.80;74.70;;;;;;5035972;28;20378;-68
2022/12/07 12:29:18;;;;;;;7.35;2.13;;;8.90;74.80;;;;;;5036677;28;20447;-67
2022/12/07 12:31:48;;;;;;;4.82;1.38;;;8.90;74.80;;;;;;5037047;28;20048;-67
2022/12/07 12:34:56;;;;;;;7.78;2.00;;;8.90;74.70;;;;;;5036431;28;20073;-67
2022/12/07 12:37:34;;;;;;;5.53;1.50;;;8.90;74.60;;;;;;5035321;28;20025;-67
2022/12/07 12:40:32;;;;;;;7.25;1.77;;;8.90;74.60;;;;;;5037929;28;20025;-68
2022/12/07 12:42:58;;;;;;;8.43;1.88;;;9.00;74.50;;;;;;5035991;28;20021;-68
2022/12/07 12:45:25;;;;;;;7.32;2.13;;;9.00;74.40;;;;;;5039933;28;20025;-68
2022/12/07 12:48:03;;;;;;;6.60;1.88;;;9.10;74.30;;;;;;5039119;28;20041;-67
2022/12/07 12:50:29;;;;;;;4.75;1.50;;;9.20;74.20;;;;;;5034541;28;20029;-68
2022/12/07 12:53:17;;;;;;;6.78;1.55;;;9.30;74.00;;;;;;5035566;28;20052;-67
2022/12/07 12:55:43;;;;;;;5.47;1.80;;;9.40;73.80;;;;;;5027528;28;20315;-67
2022/12/07 12:58:17;;;;;;;5.70;1.55;;;9.40;73.70;;;;;;5036797;28;20029;-68
2022/12/07 13:00:44;;;;;;;7.90;1.85;;;9.40;74.20;;;;;;5035884;28;20032;-68
2022/12/07 13:03:26;;;;;;;8.23;1.88;;;9.40;73.60;;;;;;5035153;28;20060;-68
2022/12/07 13:06:19;;;;;;;7.85;2.22;;;9.40;73.60;;;;;;5033792;28;20125;-67
2022/12/07 13:08:46;;;;;;;7.30;1.63;;;9.40;73.70;;;;;;5036018;28;20108;-67
2022/12/07 13:11:37;;;;;;;5.75;1.40;;;9.30;73.70;;;;;;5035038;28;20057;-67
2022/12/07 13:14:40;;;;;;;4.60;1.83;;;9.30;73.70;;;;;;5033305;28;20100;-67
2022/12/07 13:17:11;;;;;;;6.03;1.45;;;9.20;73.80;;;;;;5014814;28;20125;-67
2022/12/07 13:19:53;;;;;;;11.60;2.00;;;9.20;74.00;;;;;;5035144;28;20033;-67